sensor_id;sensor_type;location;lat;lon;timestamp;pressure;altitude;pressure_sealevel;temperature;humidity
5812;BME280;2932;52.400;9.558;2022-08-03T00:02:23;100945.75;;;23.05;72.02
5812;BME280;2932;52.400;9.558;2022-08-03T00:04:48;100950.22;;;23.02;71.86
5812;BME280;2932;52.400;9.558;2022-08-03T00:07:14;100938.53;;;23.00;72.10
5812;BME280;2932;52.400;9.558;2022-08-03T00:09:39;100945.38;;;23.03;72.02
5812;BME280;2932;52.400;9.558;2022-08-03T00:12:06;100945.31;;;23.06;71.99
5812;BME280;2932;52.400;9.558;2022-08-03T00:14:31;100942.13;;;23.04;71.81
5812;BME280;2932;52.400;9.558;2022-08-03T00:16:57;100944.19;;;23.00;72.55
5812;BME280;2932;52.400;9.558;2022-08-03T00:19:22;100941.13;;;22.87;72.68
5812;BME280;2932;52.400;9.558;2022-08-03T00:21:48;100936.44;;;22.74;72.82
5812;BME280;2932;52.400;9.558;2022-08-03T00:24:13;100933.66;;;22.70;73.25
5812;BME280;2932;52.400;9.558;2022-08-03T00:26:38;100942.28;;;22.56;74.12
5812;BME280;2932;52.400;9.558;2022-08-03T00:29:04;100935.53;;;22.46;73.97
5812;BME280;2932;52.400;9.558;2022-08-03T00:31:29;100940.38;;;22.46;72.75
5812;BME280;2932;52.400;9.558;2022-08-03T00:33:55;100935.66;;;22.39;73.06
5812;BME280;2932;52.400;9.558;2022-08-03T00:36:20;100936.72;;;22.49;73.23
5812;BME280;2932;52.400;9.558;2022-08-03T00:38:45;100935.81;;;22.59;73.09
5812;BME280;2932;52.400;9.558;2022-08-03T00:41:11;100929.31;;;22.62;72.60
5812;BME280;2932;52.400;9.558;2022-08-03T00:43:36;100930.06;;;22.70;72.29
5812;BME280;2932;52.400;9.558;2022-08-03T00:46:01;100932.44;;;22.71;72.58
5812;BME280;2932;52.400;9.558;2022-08-03T00:48:27;100928.81;;;22.71;73.04
5812;BME280;2932;52.400;9.558;2022-08-03T00:50:52;100928.50;;;22.65;73.38
5812;BME280;2932;52.400;9.558;2022-08-03T00:53:18;100929.31;;;22.62;73.59
5812;BME280;2932;52.400;9.558;2022-08-03T00:55:44;100928.19;;;22.56;73.75
5812;BME280;2932;52.400;9.558;2022-08-03T00:58:09;100925.34;;;22.59;73.89
5812;BME280;2932;52.400;9.558;2022-08-03T01:00:37;100912.03;;;22.60;73.61
5812;BME280;2932;52.400;9.558;2022-08-03T01:03:04;100922.09;;;22.61;74.02
5812;BME280;2932;52.400;9.558;2022-08-03T01:05:32;100925.28;;;22.63;73.82
5812;BME280;2932;52.400;9.558;2022-08-03T01:08:06;100919.25;;;22.61;73.63
5812;BME280;2932;52.400;9.558;2022-08-03T01:10:39;100916.09;;;22.55;73.95
5812;BME280;2932;52.400;9.558;2022-08-03T01:20:57;100922.31;;;22.40;74.95
5812;BME280;2932;52.400;9.558;2022-08-03T01:23:34;100926.75;;;22.41;75.13
5812;BME280;2932;52.400;9.558;2022-08-03T01:26:22;100921.47;;;22.43;75.08
5812;BME280;2932;52.400;9.558;2022-08-03T01:31:43;100912.41;;;22.28;75.41
5812;BME280;2932;52.400;9.558;2022-08-03T01:34:13;100914.00;;;22.29;75.32
5812;BME280;2932;52.400;9.558;2022-08-03T01:36:43;100909.59;;;22.28;75.44
5812;BME280;2932;52.400;9.558;2022-08-03T01:39:14;100922.44;;;22.33;75.46
5812;BME280;2932;52.400;9.558;2022-08-03T01:42:02;100924.06;;;22.30;75.59
5812;BME280;2932;52.400;9.558;2022-08-03T01:44:33;100924.50;;;22.25;75.78
5812;BME280;2932;52.400;9.558;2022-08-03T01:47:02;100918.94;;;22.18;75.96
5812;BME280;2932;52.400;9.558;2022-08-03T01:49:29;100919.03;;;22.07;76.80
5812;BME280;2932;52.400;9.558;2022-08-03T01:51:56;100919.06;;;22.04;76.49
5812;BME280;2932;52.400;9.558;2022-08-03T01:54:23;100903.31;;;22.10;76.20
5812;BME280;2932;52.400;9.558;2022-08-03T01:56:51;100916.25;;;22.04;76.63
5812;BME280;2932;52.400;9.558;2022-08-03T01:59:19;100919.59;;;21.91;76.92
5812;BME280;2932;52.400;9.558;2022-08-03T02:01:47;100917.19;;;21.90;77.70
5812;BME280;2932;52.400;9.558;2022-08-03T02:04:15;100923.22;;;21.92;77.83
5812;BME280;2932;52.400;9.558;2022-08-03T02:06:42;100908.25;;;21.99;77.67
5812;BME280;2932;52.400;9.558;2022-08-03T02:09:14;100914.69;;;21.99;77.99
5812;BME280;2932;52.400;9.558;2022-08-03T02:11:41;100909.03;;;22.03;77.74
5812;BME280;2932;52.400;9.558;2022-08-03T02:14:09;100908.25;;;21.99;78.04
5812;BME280;2932;52.400;9.558;2022-08-03T02:16:35;100907.81;;;22.04;77.99
5812;BME280;2932;52.400;9.558;2022-08-03T02:19:03;100904.25;;;21.96;77.58
5812;BME280;2932;52.400;9.558;2022-08-03T02:21:31;100910.34;;;21.91;77.10
5812;BME280;2932;52.400;9.558;2022-08-03T02:23:58;100910.41;;;21.84;76.89
5812;BME280;2932;52.400;9.558;2022-08-03T02:26:25;100907.19;;;21.82;76.71
5812;BME280;2932;52.400;9.558;2022-08-03T02:28:55;100909.22;;;21.81;76.98
5812;BME280;2932;52.400;9.558;2022-08-03T02:31:27;100902.78;;;21.81;76.26
5812;BME280;2932;52.400;9.558;2022-08-03T02:34:00;100906.00;;;21.79;76.19
5812;BME280;2932;52.400;9.558;2022-08-03T02:36:30;100904.38;;;21.82;75.86
5812;BME280;2932;52.400;9.558;2022-08-03T02:38:58;100901.97;;;21.80;75.53
5812;BME280;2932;52.400;9.558;2022-08-03T02:41:37;100902.34;;;21.82;75.61
5812;BME280;2932;52.400;9.558;2022-08-03T02:44:09;100898.81;;;21.75;74.92
5812;BME280;2932;52.400;9.558;2022-08-03T02:46:42;100904.47;;;21.71;74.64
5812;BME280;2932;52.400;9.558;2022-08-03T02:49:10;100905.63;;;21.77;74.71
5812;BME280;2932;52.400;9.558;2022-08-03T02:51:37;100891.50;;;21.81;74.59
5812;BME280;2932;52.400;9.558;2022-08-03T02:54:05;100896.41;;;21.73;74.63
5812;BME280;2932;52.400;9.558;2022-08-03T02:56:32;100895.56;;;21.76;74.73
5812;BME280;2932;52.400;9.558;2022-08-03T02:58:58;100892.34;;;21.78;75.26
5812;BME280;2932;52.400;9.558;2022-08-03T03:01:26;100894.75;;;21.76;75.05
5812;BME280;2932;52.400;9.558;2022-08-03T03:03:54;100890.75;;;21.73;75.25
5812;BME280;2932;52.400;9.558;2022-08-03T03:06:20;100893.59;;;21.73;75.29
5812;BME280;2932;52.400;9.558;2022-08-03T03:08:47;100892.00;;;21.69;75.18
5812;BME280;2932;52.400;9.558;2022-08-03T03:11:14;100902.09;;;21.66;75.17
5812;BME280;2932;52.400;9.558;2022-08-03T03:13:42;100894.56;;;21.56;75.05
5812;BME280;2932;52.400;9.558;2022-08-03T03:16:11;100891.69;;;21.59;75.55
5812;BME280;2932;52.400;9.558;2022-08-03T03:18:38;100895.28;;;21.60;75.42
5812;BME280;2932;52.400;9.558;2022-08-03T03:21:06;100899.66;;;21.68;74.84
5812;BME280;2932;52.400;9.558;2022-08-03T03:23:34;100896.06;;;21.64;74.90
5812;BME280;2932;52.400;9.558;2022-08-03T03:26:00;100896.09;;;21.60;75.54
5812;BME280;2932;52.400;9.558;2022-08-03T03:28:27;100896.56;;;21.55;76.41
5812;BME280;2932;52.400;9.558;2022-08-03T03:30:52;100899.88;;;21.43;77.03
5812;BME280;2932;52.400;9.558;2022-08-03T03:33:18;100893.44;;;21.43;76.90
5812;BME280;2932;52.400;9.558;2022-08-03T03:35:43;100903.13;;;21.38;76.73
5812;BME280;2932;52.400;9.558;2022-08-03T03:38:11;100892.25;;;21.40;76.83
5812;BME280;2932;52.400;9.558;2022-08-03T03:40:37;100890.63;;;21.43;76.26
5812;BME280;2932;52.400;9.558;2022-08-03T03:43:06;100896.22;;;21.46;76.19
5812;BME280;2932;52.400;9.558;2022-08-03T03:45:33;100887.78;;;21.46;75.97
5812;BME280;2932;52.400;9.558;2022-08-03T03:48:00;100895.00;;;21.51;76.01
5812;BME280;2932;52.400;9.558;2022-08-03T03:52:53;100888.97;;;21.49;75.49
5812;BME280;2932;52.400;9.558;2022-08-03T03:55:18;100891.06;;;21.38;75.36
5812;BME280;2932;52.400;9.558;2022-08-03T03:57:44;100892.63;;;21.42;76.28
5812;BME280;2932;52.400;9.558;2022-08-03T04:00:12;100900.28;;;21.42;76.35
5812;BME280;2932;52.400;9.558;2022-08-03T04:02:38;100899.09;;;21.39;76.98
5812;BME280;2932;52.400;9.558;2022-08-03T04:05:04;100896.69;;;21.38;77.32
5812;BME280;2932;52.400;9.558;2022-08-03T04:07:57;100893.50;;;21.36;77.12
5812;BME280;2932;52.400;9.558;2022-08-03T04:10:42;100899.91;;;21.40;76.91
5812;BME280;2932;52.400;9.558;2022-08-03T04:13:31;100896.25;;;21.43;76.46
5812;BME280;2932;52.400;9.558;2022-08-03T04:15:58;100894.63;;;21.45;75.31
5812;BME280;2932;52.400;9.558;2022-08-03T04:18:26;100897.47;;;21.42;74.91
5812;BME280;2932;52.400;9.558;2022-08-03T04:20:53;100906.22;;;21.54;75.40
5812;BME280;2932;52.400;9.558;2022-08-03T04:23:21;100898.19;;;21.53;76.10
5812;BME280;2932;52.400;9.558;2022-08-03T04:25:49;100897.84;;;21.47;76.71
5812;BME280;2932;52.400;9.558;2022-08-03T04:28:16;100903.91;;;21.42;77.02
5812;BME280;2932;52.400;9.558;2022-08-03T04:30:45;100916.34;;;21.45;76.75
5812;BME280;2932;52.400;9.558;2022-08-03T04:33:13;100911.06;;;21.54;76.28
5812;BME280;2932;52.400;9.558;2022-08-03T04:35:42;100912.19;;;21.60;75.47
5812;BME280;2932;52.400;9.558;2022-08-03T04:38:12;100910.91;;;21.68;74.67
5812;BME280;2932;52.400;9.558;2022-08-03T04:40:40;100912.81;;;21.82;73.39
5812;BME280;2932;52.400;9.558;2022-08-03T04:43:09;100909.19;;;21.85;72.81
5812;BME280;2932;52.400;9.558;2022-08-03T04:45:35;100906.81;;;21.80;73.25
5812;BME280;2932;52.400;9.558;2022-08-03T04:48:01;100907.53;;;21.91;72.53
5812;BME280;2932;52.400;9.558;2022-08-03T04:50:27;100912.66;;;22.00;72.17
5812;BME280;2932;52.400;9.558;2022-08-03T04:52:53;100915.78;;;22.12;71.70
5812;BME280;2932;52.400;9.558;2022-08-03T04:55:29;100918.66;;;22.05;71.68
5812;BME280;2932;52.400;9.558;2022-08-03T04:57:56;100915.28;;;22.21;71.38
5812;BME280;2932;52.400;9.558;2022-08-03T05:00:22;100913.66;;;22.23;71.22
5812;BME280;2932;52.400;9.558;2022-08-03T05:02:48;100909.41;;;22.42;70.35
5812;BME280;2932;52.400;9.558;2022-08-03T05:05:14;100912.31;;;22.35;70.47
5812;BME280;2932;52.400;9.558;2022-08-03T05:07:40;100907.16;;;22.30;70.32
5812;BME280;2932;52.400;9.558;2022-08-03T05:10:07;100914.25;;;22.42;69.76
5812;BME280;2932;52.400;9.558;2022-08-03T05:12:33;100918.50;;;22.57;69.26
5812;BME280;2932;52.400;9.558;2022-08-03T05:14:59;100916.91;;;22.56;69.21
5812;BME280;2932;52.400;9.558;2022-08-03T05:17:25;100914.84;;;22.60;69.24
5812;BME280;2932;52.400;9.558;2022-08-03T05:19:50;100918.34;;;22.71;69.25
5812;BME280;2932;52.400;9.558;2022-08-03T05:22:16;100912.25;;;22.76;68.79
5812;BME280;2932;52.400;9.558;2022-08-03T05:24:41;100913.66;;;22.91;68.55
5812;BME280;2932;52.400;9.558;2022-08-03T05:27:06;100909.25;;;22.90;68.62
5812;BME280;2932;52.400;9.558;2022-08-03T05:29:32;100916.63;;;22.81;68.66
5812;BME280;2932;52.400;9.558;2022-08-03T05:31:57;100912.91;;;22.87;68.58
5812;BME280;2932;52.400;9.558;2022-08-03T05:34:22;100911.50;;;23.03;68.86
5812;BME280;2932;52.400;9.558;2022-08-03T05:36:48;100905.47;;;23.01;68.54
5812;BME280;2932;52.400;9.558;2022-08-03T05:39:13;100913.25;;;23.20;68.19
5812;BME280;2932;52.400;9.558;2022-08-03T05:41:39;100905.66;;;23.17;68.32
5812;BME280;2932;52.400;9.558;2022-08-03T05:44:04;100903.22;;;23.19;68.39
5812;BME280;2932;52.400;9.558;2022-08-03T05:46:30;100906.19;;;23.35;68.62
5812;BME280;2932;52.400;9.558;2022-08-03T05:48:55;100907.72;;;23.40;68.26
5812;BME280;2932;52.400;9.558;2022-08-03T05:51:21;100910.91;;;23.42;68.70
5812;BME280;2932;52.400;9.558;2022-08-03T05:53:46;100906.75;;;23.53;68.32
5812;BME280;2932;52.400;9.558;2022-08-03T05:56:12;100901.25;;;23.66;68.49
5812;BME280;2932;52.400;9.558;2022-08-03T05:58:37;100901.16;;;23.73;68.71
5812;BME280;2932;52.400;9.558;2022-08-03T06:01:02;100909.38;;;23.87;68.22
5812;BME280;2932;52.400;9.558;2022-08-03T06:03:28;100900.84;;;23.91;67.88
5812;BME280;2932;52.400;9.558;2022-08-03T06:05:53;100911.66;;;23.96;67.70
5812;BME280;2932;52.400;9.558;2022-08-03T06:08:22;100907.66;;;23.93;67.73
5812;BME280;2932;52.400;9.558;2022-08-03T06:10:48;100910.81;;;23.99;67.79
5812;BME280;2932;52.400;9.558;2022-08-03T06:13:13;100909.66;;;24.16;66.83
5812;BME280;2932;52.400;9.558;2022-08-03T06:15:39;100908.31;;;24.24;67.08
5812;BME280;2932;52.400;9.558;2022-08-03T06:18:05;100907.13;;;24.22;66.79
5812;BME280;2932;52.400;9.558;2022-08-03T06:20:32;100901.94;;;24.40;66.63
5812;BME280;2932;52.400;9.558;2022-08-03T06:22:57;100903.41;;;24.48;66.70
5812;BME280;2932;52.400;9.558;2022-08-03T06:25:24;100902.91;;;24.53;66.70
5812;BME280;2932;52.400;9.558;2022-08-03T06:27:50;100904.34;;;24.62;66.37
5812;BME280;2932;52.400;9.558;2022-08-03T06:30:15;100898.41;;;24.76;65.43
5812;BME280;2932;52.400;9.558;2022-08-03T06:32:41;100904.91;;;24.92;64.84
5812;BME280;2932;52.400;9.558;2022-08-03T06:35:08;100911.28;;;25.16;65.05
5812;BME280;2932;52.400;9.558;2022-08-03T06:37:47;100910.06;;;25.17;64.22
5812;BME280;2932;52.400;9.558;2022-08-03T06:40:15;100904.50;;;25.46;63.91
5812;BME280;2932;52.400;9.558;2022-08-03T06:42:41;100911.16;;;25.56;62.93
5812;BME280;2932;52.400;9.558;2022-08-03T06:45:07;100910.72;;;25.57;63.45
5812;BME280;2932;52.400;9.558;2022-08-03T06:47:35;100907.69;;;25.65;62.93
5812;BME280;2932;52.400;9.558;2022-08-03T06:50:01;100913.38;;;25.65;63.11
5812;BME280;2932;52.400;9.558;2022-08-03T06:52:28;100918.97;;;25.68;62.65
5812;BME280;2932;52.400;9.558;2022-08-03T06:54:54;100919.06;;;25.81;62.62
5812;BME280;2932;52.400;9.558;2022-08-03T06:57:19;100918.50;;;25.86;62.19
5812;BME280;2932;52.400;9.558;2022-08-03T06:59:45;100922.22;;;25.99;62.22
5812;BME280;2932;52.400;9.558;2022-08-03T07:02:10;100914.41;;;26.03;61.75
5812;BME280;2932;52.400;9.558;2022-08-03T07:04:36;100920.34;;;26.09;61.44
5812;BME280;2932;52.400;9.558;2022-08-03T07:07:02;100916.78;;;26.21;60.74
5812;BME280;2932;52.400;9.558;2022-08-03T07:09:27;100913.94;;;26.21;61.16
5812;BME280;2932;52.400;9.558;2022-08-03T07:11:53;100921.78;;;26.46;60.25
5812;BME280;2932;52.400;9.558;2022-08-03T07:14:19;100926.22;;;26.47;59.59
5812;BME280;2932;52.400;9.558;2022-08-03T07:16:44;100928.41;;;26.55;58.60
5812;BME280;2932;52.400;9.558;2022-08-03T07:19:10;100924.81;;;26.68;58.77
5812;BME280;2932;52.400;9.558;2022-08-03T07:21:36;100924.91;;;26.64;59.09
5812;BME280;2932;52.400;9.558;2022-08-03T07:24:02;100932.63;;;26.64;58.35
5812;BME280;2932;52.400;9.558;2022-08-03T07:26:27;100928.34;;;26.72;58.53
5812;BME280;2932;52.400;9.558;2022-08-03T07:28:53;100923.47;;;26.72;58.35
5812;BME280;2932;52.400;9.558;2022-08-03T07:31:18;100931.75;;;26.79;58.31
5812;BME280;2932;52.400;9.558;2022-08-03T07:33:43;100929.59;;;26.83;57.90
5812;BME280;2932;52.400;9.558;2022-08-03T07:36:09;100930.53;;;26.93;58.35
5812;BME280;2932;52.400;9.558;2022-08-03T07:38:34;100922.88;;;27.06;58.39
5812;BME280;2932;52.400;9.558;2022-08-03T07:41:01;100929.03;;;27.17;57.89
5812;BME280;2932;52.400;9.558;2022-08-03T07:43:27;100929.25;;;27.23;57.89
5812;BME280;2932;52.400;9.558;2022-08-03T07:45:52;100935.38;;;27.21;58.18
5812;BME280;2932;52.400;9.558;2022-08-03T07:48:17;100930.28;;;27.42;57.30
5812;BME280;2932;52.400;9.558;2022-08-03T07:50:43;100932.44;;;27.38;57.98
5812;BME280;2932;52.400;9.558;2022-08-03T07:53:08;100929.25;;;27.48;57.89
5812;BME280;2932;52.400;9.558;2022-08-03T07:55:34;100926.53;;;27.45;57.56
5812;BME280;2932;52.400;9.558;2022-08-03T07:58:04;100926.63;;;27.41;57.13
5812;BME280;2932;52.400;9.558;2022-08-03T08:00:30;100928.13;;;27.46;57.54
5812;BME280;2932;52.400;9.558;2022-08-03T08:02:55;100936.31;;;27.56;56.91
5812;BME280;2932;52.400;9.558;2022-08-03T08:05:21;100928.56;;;27.70;57.24
5812;BME280;2932;52.400;9.558;2022-08-03T08:07:46;100934.09;;;27.99;57.58
5812;BME280;2932;52.400;9.558;2022-08-03T08:10:12;100933.56;;;27.91;56.80
5812;BME280;2932;52.400;9.558;2022-08-03T08:12:38;100931.16;;;27.89;57.20
5812;BME280;2932;52.400;9.558;2022-08-03T08:15:05;100921.00;;;28.01;55.55
5812;BME280;2932;52.400;9.558;2022-08-03T08:17:41;100927.78;;;28.16;56.34
5812;BME280;2932;52.400;9.558;2022-08-03T08:20:07;100924.28;;;28.47;55.39
5812;BME280;2932;52.400;9.558;2022-08-03T08:22:32;100922.81;;;28.42;55.06
5812;BME280;2932;52.400;9.558;2022-08-03T08:24:58;100924.41;;;28.43;54.97
5812;BME280;2932;52.400;9.558;2022-08-03T08:27:23;100922.16;;;28.38;54.67
5812;BME280;2932;52.400;9.558;2022-08-03T08:29:48;100926.78;;;28.45;54.56
5812;BME280;2932;52.400;9.558;2022-08-03T08:32:14;100920.31;;;28.66;54.97
5812;BME280;2932;52.400;9.558;2022-08-03T08:34:40;100922.09;;;28.95;54.26
5812;BME280;2932;52.400;9.558;2022-08-03T08:37:05;100918.38;;;28.85;54.81
5812;BME280;2932;52.400;9.558;2022-08-03T08:39:31;100923.75;;;28.83;54.69
5812;BME280;2932;52.400;9.558;2022-08-03T08:41:56;100923.09;;;29.01;54.45
5812;BME280;2932;52.400;9.558;2022-08-03T08:44:22;100930.69;;;29.04;54.04
5812;BME280;2932;52.400;9.558;2022-08-03T08:46:47;100930.84;;;29.00;53.74
5812;BME280;2932;52.400;9.558;2022-08-03T08:49:16;100923.94;;;29.10;53.84
5812;BME280;2932;52.400;9.558;2022-08-03T08:51:42;100927.56;;;29.11;53.61
5812;BME280;2932;52.400;9.558;2022-08-03T08:54:10;100934.66;;;29.37;53.40
5812;BME280;2932;52.400;9.558;2022-08-03T08:56:36;100928.31;;;29.33;53.67
5812;BME280;2932;52.400;9.558;2022-08-03T08:59:03;100938.69;;;29.18;53.35
5812;BME280;2932;52.400;9.558;2022-08-03T09:01:29;100928.03;;;29.40;53.36
5812;BME280;2932;52.400;9.558;2022-08-03T09:03:54;100928.84;;;29.41;52.57
5812;BME280;2932;52.400;9.558;2022-08-03T09:06:20;100932.53;;;29.60;53.43
5812;BME280;2932;52.400;9.558;2022-08-03T09:08:46;100931.13;;;29.64;52.09
5812;BME280;2932;52.400;9.558;2022-08-03T09:11:11;100930.84;;;29.71;52.52
5812;BME280;2932;52.400;9.558;2022-08-03T09:13:37;100933.66;;;29.53;51.96
5812;BME280;2932;52.400;9.558;2022-08-03T09:16:14;100927.75;;;29.47;52.89
5812;BME280;2932;52.400;9.558;2022-08-03T09:18:41;100923.84;;;29.63;52.59
5812;BME280;2932;52.400;9.558;2022-08-03T09:21:26;100917.41;;;29.81;52.46
5812;BME280;2932;52.400;9.558;2022-08-03T09:23:54;100922.00;;;29.88;52.04
5812;BME280;2932;52.400;9.558;2022-08-03T09:26:22;100935.28;;;29.72;52.55
5812;BME280;2932;52.400;9.558;2022-08-03T09:29:09;100924.63;;;29.64;52.23
5812;BME280;2932;52.400;9.558;2022-08-03T09:31:42;100921.19;;;29.78;52.27
5812;BME280;2932;52.400;9.558;2022-08-03T09:34:10;100917.44;;;29.99;51.78
5812;BME280;2932;52.400;9.558;2022-08-03T09:39:12;100921.88;;;30.00;50.88
5812;BME280;2932;52.400;9.558;2022-08-03T09:41:39;100921.47;;;29.62;51.36
5812;BME280;2932;52.400;9.558;2022-08-03T09:44:05;100922.31;;;29.80;50.91
5812;BME280;2932;52.400;9.558;2022-08-03T09:46:30;100930.56;;;29.88;50.51
5812;BME280;2932;52.400;9.558;2022-08-03T09:49:12;100919.38;;;30.11;50.55
5812;BME280;2932;52.400;9.558;2022-08-03T09:51:39;100915.25;;;30.49;50.05
5812;BME280;2932;52.400;9.558;2022-08-03T09:54:05;100914.44;;;30.39;49.62
5812;BME280;2932;52.400;9.558;2022-08-03T09:56:56;100910.03;;;30.66;49.32
5812;BME280;2932;52.400;9.558;2022-08-03T09:59:30;100921.75;;;30.40;49.10
5812;BME280;2932;52.400;9.558;2022-08-03T10:01:58;100915.88;;;30.44;49.33
5812;BME280;2932;52.400;9.558;2022-08-03T10:04:26;100917.16;;;30.70;48.27
5812;BME280;2932;52.400;9.558;2022-08-03T10:07:07;100909.88;;;30.69;48.12
5812;BME280;2932;52.400;9.558;2022-08-03T10:09:33;100899.22;;;31.30;47.96
5812;BME280;2932;52.400;9.558;2022-08-03T10:12:09;100905.59;;;31.58;46.68
5812;BME280;2932;52.400;9.558;2022-08-03T10:14:39;100908.53;;;31.40;46.82
5812;BME280;2932;52.400;9.558;2022-08-03T10:17:06;100905.88;;;31.27;47.91
5812;BME280;2932;52.400;9.558;2022-08-03T10:19:32;100901.66;;;31.79;47.32
5812;BME280;2932;52.400;9.558;2022-08-03T10:22:02;100904.72;;;31.76;46.83
5812;BME280;2932;52.400;9.558;2022-08-03T10:24:29;100905.06;;;31.36;47.79
5812;BME280;2932;52.400;9.558;2022-08-03T10:27:01;100902.47;;;31.14;47.36
5812;BME280;2932;52.400;9.558;2022-08-03T10:29:28;100901.66;;;31.04;48.45
5812;BME280;2932;52.400;9.558;2022-08-03T10:31:57;100894.53;;;31.00;48.65
5812;BME280;2932;52.400;9.558;2022-08-03T10:34:26;100896.53;;;30.75;48.93
5812;BME280;2932;52.400;9.558;2022-08-03T10:36:55;100887.69;;;31.15;47.87
5812;BME280;2932;52.400;9.558;2022-08-03T10:39:28;100892.47;;;31.99;46.69
5812;BME280;2932;52.400;9.558;2022-08-03T10:41:55;100891.78;;;31.57;47.31
5812;BME280;2932;52.400;9.558;2022-08-03T10:44:23;100886.22;;;31.20;47.71
5812;BME280;2932;52.400;9.558;2022-08-03T10:46:50;100890.84;;;31.50;46.94
5812;BME280;2932;52.400;9.558;2022-08-03T10:49:19;100880.72;;;31.73;46.64
5812;BME280;2932;52.400;9.558;2022-08-03T10:51:46;100876.09;;;31.76;46.92
5812;BME280;2932;52.400;9.558;2022-08-03T11:00:06;100886.00;;;32.13;46.25
5812;BME280;2932;52.400;9.558;2022-08-03T11:05:32;100882.19;;;31.60;46.58
5812;BME280;2932;52.400;9.558;2022-08-03T11:08:21;100884.03;;;31.81;46.42
5812;BME280;2932;52.400;9.558;2022-08-03T11:10:49;100878.25;;;32.29;46.02
5812;BME280;2932;52.400;9.558;2022-08-03T11:13:19;100877.47;;;31.57;45.75
5812;BME280;2932;52.400;9.558;2022-08-03T11:15:47;100872.06;;;32.06;45.27
5812;BME280;2932;52.400;9.558;2022-08-03T11:18:14;100876.84;;;32.77;45.40
5812;BME280;2932;52.400;9.558;2022-08-03T11:23:15;100873.63;;;32.46;45.84
5812;BME280;2932;52.400;9.558;2022-08-03T11:26:09;100876.13;;;32.14;46.02
5812;BME280;2932;52.400;9.558;2022-08-03T11:28:35;100862.56;;;32.54;45.13
5812;BME280;2932;52.400;9.558;2022-08-03T11:36:28;100857.13;;;33.29;43.79
5812;BME280;2932;52.400;9.558;2022-08-03T11:39:13;100864.38;;;33.10;44.46
5812;BME280;2932;52.400;9.558;2022-08-03T11:41:39;100863.56;;;33.09;44.66
5812;BME280;2932;52.400;9.558;2022-08-03T11:44:04;100860.69;;;33.09;44.93
5812;BME280;2932;52.400;9.558;2022-08-03T11:46:36;100863.88;;;32.97;44.70
5812;BME280;2932;52.400;9.558;2022-08-03T11:49:05;100860.31;;;33.52;44.99
5812;BME280;2932;52.400;9.558;2022-08-03T11:51:33;100857.28;;;33.40;44.87
5812;BME280;2932;52.400;9.558;2022-08-03T11:54:03;100856.13;;;33.32;45.04
5812;BME280;2932;52.400;9.558;2022-08-03T11:56:43;100857.00;;;33.94;43.65
5812;BME280;2932;52.400;9.558;2022-08-03T11:59:09;100852.69;;;33.84;44.13
5812;BME280;2932;52.400;9.558;2022-08-03T12:01:34;100860.81;;;33.70;43.94
5812;BME280;2932;52.400;9.558;2022-08-03T12:04:04;100854.44;;;33.61;44.26
5812;BME280;2932;52.400;9.558;2022-08-03T12:06:29;100850.91;;;34.58;42.60
5812;BME280;2932;52.400;9.558;2022-08-03T12:08:55;100855.50;;;34.24;43.28
5812;BME280;2932;52.400;9.558;2022-08-03T12:11:20;100863.03;;;33.40;44.26
5812;BME280;2932;52.400;9.558;2022-08-03T12:13:48;100859.00;;;33.32;44.49
5812;BME280;2932;52.400;9.558;2022-08-03T12:16:21;100849.88;;;33.34;44.54
5812;BME280;2932;52.400;9.558;2022-08-03T12:19:03;100851.31;;;34.45;42.62
5812;BME280;2932;52.400;9.558;2022-08-03T12:21:29;100847.78;;;34.10;43.17
5812;BME280;2932;52.400;9.558;2022-08-03T12:24:03;100840.97;;;35.17;41.71
5812;BME280;2932;52.400;9.558;2022-08-03T12:26:29;100848.69;;;33.61;43.57
5812;BME280;2932;52.400;9.558;2022-08-03T12:29:06;100842.56;;;33.88;43.13
5812;BME280;2932;52.400;9.558;2022-08-03T12:31:31;100836.97;;;35.03;41.65
5812;BME280;2932;52.400;9.558;2022-08-03T12:36:24;100837.50;;;34.50;42.32
5812;BME280;2932;52.400;9.558;2022-08-03T12:39:02;100845.88;;;34.79;41.66
5812;BME280;2932;52.400;9.558;2022-08-03T12:43:57;100848.25;;;34.29;42.33
5812;BME280;2932;52.400;9.558;2022-08-03T12:46:31;100843.22;;;35.01;41.31
5812;BME280;2932;52.400;9.558;2022-08-03T12:51:28;100860.22;;;34.48;41.37
5812;BME280;2932;52.400;9.558;2022-08-03T12:53:54;100833.13;;;34.54;41.19
5812;BME280;2932;52.400;9.558;2022-08-03T12:56:20;100838.88;;;34.08;42.36
5812;BME280;2932;52.400;9.558;2022-08-03T12:58:46;100845.59;;;34.25;41.65
5812;BME280;2932;52.400;9.558;2022-08-03T13:01:12;100837.66;;;34.15;41.79
5812;BME280;2932;52.400;9.558;2022-08-03T13:03:45;100844.84;;;34.51;41.51
5812;BME280;2932;52.400;9.558;2022-08-03T13:06:17;100838.66;;;34.11;42.80
5812;BME280;2932;52.400;9.558;2022-08-03T13:08:43;100825.31;;;35.18;42.01
5812;BME280;2932;52.400;9.558;2022-08-03T13:13:42;100826.34;;;34.57;41.16
5812;BME280;2932;52.400;9.558;2022-08-03T13:16:08;100830.25;;;35.17;40.70
5812;BME280;2932;52.400;9.558;2022-08-03T13:18:33;100830.28;;;34.86;41.84
5812;BME280;2932;52.400;9.558;2022-08-03T13:20:58;100822.19;;;34.90;40.66
5812;BME280;2932;52.400;9.558;2022-08-03T13:23:24;100817.63;;;36.05;39.21
5812;BME280;2932;52.400;9.558;2022-08-03T13:25:49;100815.81;;;36.14;39.72
5812;BME280;2932;52.400;9.558;2022-08-03T13:28:15;100809.69;;;35.78;40.39
5812;BME280;2932;52.400;9.558;2022-08-03T13:30:40;100821.09;;;35.13;40.93
5812;BME280;2932;52.400;9.558;2022-08-03T13:33:07;100812.50;;;35.19;41.07
5812;BME280;2932;52.400;9.558;2022-08-03T13:35:32;100815.66;;;35.26;40.80
5812;BME280;2932;52.400;9.558;2022-08-03T13:37:58;100816.88;;;35.08;41.35
5812;BME280;2932;52.400;9.558;2022-08-03T13:40:23;100822.63;;;35.08;41.18
5812;BME280;2932;52.400;9.558;2022-08-03T13:42:48;100815.50;;;35.41;40.68
5812;BME280;2932;52.400;9.558;2022-08-03T13:45:14;100795.66;;;36.14;39.47
5812;BME280;2932;52.400;9.558;2022-08-03T13:47:39;100794.13;;;36.40;38.68
5812;BME280;2932;52.400;9.558;2022-08-03T13:50:05;100801.63;;;35.39;41.39
5812;BME280;2932;52.400;9.558;2022-08-03T13:52:34;100795.56;;;35.80;40.68
5812;BME280;2932;52.400;9.558;2022-08-03T13:55:00;100791.56;;;35.72;39.42
5812;BME280;2932;52.400;9.558;2022-08-03T13:57:26;100790.47;;;35.10;39.88